sensor_id;sensor_type;location;lat;lon;timestamp;temperature;humidity
26947;DHT22;14501;52.282;10.560;2022-09-01T00:02:05;11.90;99.90
26947;DHT22;14501;52.282;10.560;2022-09-01T00:04:34;11.90;99.90
26947;DHT22;14501;52.282;10.560;2022-09-01T00:07:04;11.90;99.90
26947;DHT22;14501;52.282;10.560;2022-09-01T00:09:30;11.80;99.90
26947;DHT22;14501;52.282;10.560;2022-09-01T00:11:56;11.80;99.90
26947;DHT22;14501;52.282;10.560;2022-09-01T00:14:27;11.70;99.90
26947;DHT22;14501;52.282;10.560;2022-09-01T00:16:53;11.70;99.90
26947;DHT22;14501;52.282;10.560;2022-09-01T00:19:20;11.70;99.90
26947;DHT22;14501;52.282;10.560;2022-09-01T00:21:46;11.60;99.90
26947;DHT22;14501;52.282;10.560;2022-09-01T00:24:13;11.60;99.90
26947;DHT22;14501;52.282;10.560;2022-09-01T00:26:40;11.50;99.90
26947;DHT22;14501;52.282;10.560;2022-09-01T00:29:06;11.50;99.90
26947;DHT22;14501;52.282;10.560;2022-09-01T00:31:33;11.50;99.90
26947;DHT22;14501;52.282;10.560;2022-09-01T00:33:59;11.50;99.90
26947;DHT22;14501;52.282;10.560;2022-09-01T00:36:24;11.50;99.90
26947;DHT22;14501;52.282;10.560;2022-09-01T00:38:52;11.50;99.90
26947;DHT22;14501;52.282;10.560;2022-09-01T00:41:20;11.50;99.90
26947;DHT22;14501;52.282;10.560;2022-09-01T00:43:48;11.50;99.90
26947;DHT22;14501;52.282;10.560;2022-09-01T00:46:26;11.50;99.90
26947;DHT22;14501;52.282;10.560;2022-09-01T00:49:05;11.40;99.90
26947;DHT22;14501;52.282;10.560;2022-09-01T00:51:34;11.40;99.90
26947;DHT22;14501;52.282;10.560;2022-09-01T00:54:02;11.40;99.90
26947;DHT22;14501;52.282;10.560;2022-09-01T00:56:31;11.30;99.90
26947;DHT22;14501;52.282;10.560;2022-09-01T00:58:58;11.30;99.90
26947;DHT22;14501;52.282;10.560;2022-09-01T01:01:24;11.30;99.90
26947;DHT22;14501;52.282;10.560;2022-09-01T01:03:49;11.40;99.90
26947;DHT22;14501;52.282;10.560;2022-09-01T01:06:16;11.30;99.90
26947;DHT22;14501;52.282;10.560;2022-09-01T01:08:46;11.20;99.90
26947;DHT22;14501;52.282;10.560;2022-09-01T01:11:21;11.20;99.90
26947;DHT22;14501;52.282;10.560;2022-09-01T01:13:53;11.20;99.90
26947;DHT22;14501;52.282;10.560;2022-09-01T01:16:21;11.10;99.90
26947;DHT22;14501;52.282;10.560;2022-09-01T01:18:47;11.00;99.90
26947;DHT22;14501;52.282;10.560;2022-09-01T01:21:34;11.00;99.90
26947;DHT22;14501;52.282;10.560;2022-09-01T01:24:24;11.00;99.90
26947;DHT22;14501;52.282;10.560;2022-09-01T01:26:51;10.90;99.90
26947;DHT22;14501;52.282;10.560;2022-09-01T01:29:17;10.90;99.90
26947;DHT22;14501;52.282;10.560;2022-09-01T01:31:44;10.90;99.90
26947;DHT22;14501;52.282;10.560;2022-09-01T01:34:12;10.90;99.90
26947;DHT22;14501;52.282;10.560;2022-09-01T01:36:39;10.80;99.90
26947;DHT22;14501;52.282;10.560;2022-09-01T01:39:10;10.80;99.90
26947;DHT22;14501;52.282;10.560;2022-09-01T01:41:38;10.80;99.90
26947;DHT22;14501;52.282;10.560;2022-09-01T01:44:07;10.80;99.90
26947;DHT22;14501;52.282;10.560;2022-09-01T01:46:34;10.70;99.90
26947;DHT22;14501;52.282;10.560;2022-09-01T01:49:00;10.70;99.90
26947;DHT22;14501;52.282;10.560;2022-09-01T01:51:28;10.70;99.90
26947;DHT22;14501;52.282;10.560;2022-09-01T01:53:56;10.70;99.90
26947;DHT22;14501;52.282;10.560;2022-09-01T01:56:24;10.70;99.90
26947;DHT22;14501;52.282;10.560;2022-09-01T01:58:51;10.60;99.90
26947;DHT22;14501;52.282;10.560;2022-09-01T02:01:19;10.60;99.90
26947;DHT22;14501;52.282;10.560;2022-09-01T02:03:46;11.60;99.90
26947;DHT22;14501;52.282;10.560;2022-09-01T02:06:12;10.60;99.90
26947;DHT22;14501;52.282;10.560;2022-09-01T02:08:39;10.60;99.90
26947;DHT22;14501;52.282;10.560;2022-09-01T02:11:06;10.50;99.90
26947;DHT22;14501;52.282;10.560;2022-09-01T02:13:32;10.60;99.90
26947;DHT22;14501;52.282;10.560;2022-09-01T02:16:04;12.00;99.90
26947;DHT22;14501;52.282;10.560;2022-09-01T02:18:36;10.50;99.90
26947;DHT22;14501;52.282;10.560;2022-09-01T02:21:05;10.50;99.90
26947;DHT22;14501;52.282;10.560;2022-09-01T02:23:35;10.50;99.90
26947;DHT22;14501;52.282;10.560;2022-09-01T02:26:01;10.40;99.90
26947;DHT22;14501;52.282;10.560;2022-09-01T02:28:28;10.40;99.90
26947;DHT22;14501;52.282;10.560;2022-09-01T02:30:56;12.00;99.90
26947;DHT22;14501;52.282;10.560;2022-09-01T02:33:25;10.40;99.90
26947;DHT22;14501;52.282;10.560;2022-09-01T02:36:00;10.40;99.90
26947;DHT22;14501;52.282;10.560;2022-09-01T02:38:26;10.40;99.90
26947;DHT22;14501;52.282;10.560;2022-09-01T02:40:57;10.40;99.90
26947;DHT22;14501;52.282;10.560;2022-09-01T02:43:24;10.40;99.90
26947;DHT22;14501;52.282;10.560;2022-09-01T02:45:51;10.30;99.90
26947;DHT22;14501;52.282;10.560;2022-09-01T02:48:21;10.30;99.90
26947;DHT22;14501;52.282;10.560;2022-09-01T02:50:49;11.10;99.90
26947;DHT22;14501;52.282;10.560;2022-09-01T02:53:15;10.30;99.90
26947;DHT22;14501;52.282;10.560;2022-09-01T02:55:42;10.30;99.90
26947;DHT22;14501;52.282;10.560;2022-09-01T02:58:08;10.30;99.90
26947;DHT22;14501;52.282;10.560;2022-09-01T03:00:41;10.30;99.90
26947;DHT22;14501;52.282;10.560;2022-09-01T03:03:08;10.30;99.90
26947;DHT22;14501;52.282;10.560;2022-09-01T03:05:34;10.30;99.90
26947;DHT22;14501;52.282;10.560;2022-09-01T03:08:06;10.30;99.90
26947;DHT22;14501;52.282;10.560;2022-09-01T03:10:37;10.20;99.90
26947;DHT22;14501;52.282;10.560;2022-09-01T03:13:09;10.20;99.90
26947;DHT22;14501;52.282;10.560;2022-09-01T03:15:36;10.20;99.90
26947;DHT22;14501;52.282;10.560;2022-09-01T03:18:03;10.20;99.90
26947;DHT22;14501;52.282;10.560;2022-09-01T03:20:30;10.10;99.90
26947;DHT22;14501;52.282;10.560;2022-09-01T03:23:08;10.20;99.90
26947;DHT22;14501;52.282;10.560;2022-09-01T03:25:35;10.10;99.90
26947;DHT22;14501;52.282;10.560;2022-09-01T03:28:01;10.10;99.90
26947;DHT22;14501;52.282;10.560;2022-09-01T03:30:29;10.10;99.90
26947;DHT22;14501;52.282;10.560;2022-09-01T03:32:56;10.10;99.90
26947;DHT22;14501;52.282;10.560;2022-09-01T03:35:23;10.00;99.90
26947;DHT22;14501;52.282;10.560;2022-09-01T03:37:50;10.00;99.90
26947;DHT22;14501;52.282;10.560;2022-09-01T03:40:17;10.00;99.90
26947;DHT22;14501;52.282;10.560;2022-09-01T03:42:43;10.00;99.90
26947;DHT22;14501;52.282;10.560;2022-09-01T03:45:10;10.00;99.90
26947;DHT22;14501;52.282;10.560;2022-09-01T03:47:39;10.00;99.90
26947;DHT22;14501;52.282;10.560;2022-09-01T03:50:16;10.10;99.90
26947;DHT22;14501;52.282;10.560;2022-09-01T03:52:42;10.10;99.90
26947;DHT22;14501;52.282;10.560;2022-09-01T03:55:09;10.10;99.90
26947;DHT22;14501;52.282;10.560;2022-09-01T03:57:34;10.10;99.90
26947;DHT22;14501;52.282;10.560;2022-09-01T04:00:05;10.10;99.90
26947;DHT22;14501;52.282;10.560;2022-09-01T04:02:31;10.20;99.90
26947;DHT22;14501;52.282;10.560;2022-09-01T04:04:57;10.70;99.90
26947;DHT22;14501;52.282;10.560;2022-09-01T04:07:24;10.10;99.90
26947;DHT22;14501;52.282;10.560;2022-09-01T04:09:52;10.40;99.90
26947;DHT22;14501;52.282;10.560;2022-09-01T04:12:17;10.10;99.90
26947;DHT22;14501;52.282;10.560;2022-09-01T04:14:43;10.20;99.90
26947;DHT22;14501;52.282;10.560;2022-09-01T04:17:12;10.10;99.90
26947;DHT22;14501;52.282;10.560;2022-09-01T04:19:56;10.10;99.90
26947;DHT22;14501;52.282;10.560;2022-09-01T04:22:22;10.20;99.90
26947;DHT22;14501;52.282;10.560;2022-09-01T04:24:53;10.20;99.90
26947;DHT22;14501;52.282;10.560;2022-09-01T04:27:19;10.30;99.90
26947;DHT22;14501;52.282;10.560;2022-09-01T04:29:47;10.20;99.90
26947;DHT22;14501;52.282;10.560;2022-09-01T04:32:13;10.30;99.90
26947;DHT22;14501;52.282;10.560;2022-09-01T04:34:40;10.40;99.90
26947;DHT22;14501;52.282;10.560;2022-09-01T04:37:13;10.40;99.90
26947;DHT22;14501;52.282;10.560;2022-09-01T04:39:41;10.40;99.90
26947;DHT22;14501;52.282;10.560;2022-09-01T04:42:13;10.50;99.90
26947;DHT22;14501;52.282;10.560;2022-09-01T04:44:38;10.50;99.90
26947;DHT22;14501;52.282;10.560;2022-09-01T04:47:04;10.50;99.90
26947;DHT22;14501;52.282;10.560;2022-09-01T04:49:35;10.40;99.90
26947;DHT22;14501;52.282;10.560;2022-09-01T04:52:02;10.40;99.90
26947;DHT22;14501;52.282;10.560;2022-09-01T04:54:28;10.50;99.90
26947;DHT22;14501;52.282;10.560;2022-09-01T04:56:56;10.60;99.90
26947;DHT22;14501;52.282;10.560;2022-09-01T04:59:23;10.50;99.90
26947;DHT22;14501;52.282;10.560;2022-09-01T05:01:49;10.60;99.90
26947;DHT22;14501;52.282;10.560;2022-09-01T05:04:21;10.70;99.90
26947;DHT22;14501;52.282;10.560;2022-09-01T05:07:05;10.90;99.90
26947;DHT22;14501;52.282;10.560;2022-09-01T05:09:34;10.90;99.90
26947;DHT22;14501;52.282;10.560;2022-09-01T05:12:01;11.00;99.90
26947;DHT22;14501;52.282;10.560;2022-09-01T05:14:37;11.10;99.90
26947;DHT22;14501;52.282;10.560;2022-09-01T05:17:03;11.20;99.90
26947;DHT22;14501;52.282;10.560;2022-09-01T05:19:35;11.30;99.90
26947;DHT22;14501;52.282;10.560;2022-09-01T05:22:02;11.70;99.90
26947;DHT22;14501;52.282;10.560;2022-09-01T05:24:29;11.60;99.90
26947;DHT22;14501;52.282;10.560;2022-09-01T05:26:56;11.90;99.90
26947;DHT22;14501;52.282;10.560;2022-09-01T05:29:23;12.00;99.90
26947;DHT22;14501;52.282;10.560;2022-09-01T05:31:52;12.10;99.90
26947;DHT22;14501;52.282;10.560;2022-09-01T05:34:20;12.10;99.90
26947;DHT22;14501;52.282;10.560;2022-09-01T05:36:52;12.40;99.90
26947;DHT22;14501;52.282;10.560;2022-09-01T05:39:19;12.40;99.90
26947;DHT22;14501;52.282;10.560;2022-09-01T05:41:45;12.60;99.90
26947;DHT22;14501;52.282;10.560;2022-09-01T05:44:13;12.80;99.90
26947;DHT22;14501;52.282;10.560;2022-09-01T05:46:40;13.20;99.90
26947;DHT22;14501;52.282;10.560;2022-09-01T05:49:07;13.20;99.90
26947;DHT22;14501;52.282;10.560;2022-09-01T05:51:40;13.40;99.90
26947;DHT22;14501;52.282;10.560;2022-09-01T05:54:07;13.50;99.90
26947;DHT22;14501;52.282;10.560;2022-09-01T05:56:35;13.60;99.90
26947;DHT22;14501;52.282;10.560;2022-09-01T05:59:05;13.70;99.90
26947;DHT22;14501;52.282;10.560;2022-09-01T06:01:30;13.80;99.90
26947;DHT22;14501;52.282;10.560;2022-09-01T06:04:00;14.10;99.90
26947;DHT22;14501;52.282;10.560;2022-09-01T06:06:32;14.70;99.90
26947;DHT22;14501;52.282;10.560;2022-09-01T06:09:07;14.90;99.90
26947;DHT22;14501;52.282;10.560;2022-09-01T06:11:33;15.20;99.90
26947;DHT22;14501;52.282;10.560;2022-09-01T06:13:59;15.50;99.90
26947;DHT22;14501;52.282;10.560;2022-09-01T06:16:25;15.50;99.90
26947;DHT22;14501;52.282;10.560;2022-09-01T06:18:54;15.30;99.90
26947;DHT22;14501;52.282;10.560;2022-09-01T06:21:22;15.20;99.90
26947;DHT22;14501;52.282;10.560;2022-09-01T06:23:50;15.00;99.90
26947;DHT22;14501;52.282;10.560;2022-09-01T06:26:24;14.90;99.90
26947;DHT22;14501;52.282;10.560;2022-09-01T06:29:03;14.70;99.90
26947;DHT22;14501;52.282;10.560;2022-09-01T06:31:31;14.70;99.90
26947;DHT22;14501;52.282;10.560;2022-09-01T06:34:00;14.80;99.90
26947;DHT22;14501;52.282;10.560;2022-09-01T06:36:26;15.10;99.90
26947;DHT22;14501;52.282;10.560;2022-09-01T06:38:53;15.30;99.90
26947;DHT22;14501;52.282;10.560;2022-09-01T06:41:20;15.40;99.90
26947;DHT22;14501;52.282;10.560;2022-09-01T06:43:47;15.70;99.90
26947;DHT22;14501;52.282;10.560;2022-09-01T06:46:17;15.80;99.90
26947;DHT22;14501;52.282;10.560;2022-09-01T06:48:44;15.90;99.90
26947;DHT22;14501;52.282;10.560;2022-09-01T06:51:15;15.90;99.90
26947;DHT22;14501;52.282;10.560;2022-09-01T06:53:43;16.10;99.90
26947;DHT22;14501;52.282;10.560;2022-09-01T06:56:10;16.10;99.90
26947;DHT22;14501;52.282;10.560;2022-09-01T06:58:41;16.20;99.90
26947;DHT22;14501;52.282;10.560;2022-09-01T07:01:10;16.10;99.90
26947;DHT22;14501;52.282;10.560;2022-09-01T07:03:43;16.30;99.90
26947;DHT22;14501;52.282;10.560;2022-09-01T07:06:10;16.30;99.90
26947;DHT22;14501;52.282;10.560;2022-09-01T07:08:37;16.50;99.90
26947;DHT22;14501;52.282;10.560;2022-09-01T07:11:13;16.70;99.90
26947;DHT22;14501;52.282;10.560;2022-09-01T07:13:41;16.70;99.90
26947;DHT22;14501;52.282;10.560;2022-09-01T07:16:15;16.90;99.90
26947;DHT22;14501;52.282;10.560;2022-09-01T07:18:45;17.00;99.90
26947;DHT22;14501;52.282;10.560;2022-09-01T07:21:11;17.00;99.90
26947;DHT22;14501;52.282;10.560;2022-09-01T07:23:36;17.00;99.90
26947;DHT22;14501;52.282;10.560;2022-09-01T07:26:07;17.10;99.90
26947;DHT22;14501;52.282;10.560;2022-09-01T07:28:33;17.10;99.90
26947;DHT22;14501;52.282;10.560;2022-09-01T07:30:58;17.20;99.90
26947;DHT22;14501;52.282;10.560;2022-09-01T07:33:25;17.20;99.90
26947;DHT22;14501;52.282;10.560;2022-09-01T07:35:52;17.40;99.90
26947;DHT22;14501;52.282;10.560;2022-09-01T07:38:20;17.40;99.90
26947;DHT22;14501;52.282;10.560;2022-09-01T07:40:47;17.50;99.90
26947;DHT22;14501;52.282;10.560;2022-09-01T07:43:19;17.70;99.90
26947;DHT22;14501;52.282;10.560;2022-09-01T07:45:47;18.00;99.90
26947;DHT22;14501;52.282;10.560;2022-09-01T07:48:14;18.40;99.90
26947;DHT22;14501;52.282;10.560;2022-09-01T07:50:45;18.80;99.90
26947;DHT22;14501;52.282;10.560;2022-09-01T07:53:26;20.90;99.90
26947;DHT22;14501;52.282;10.560;2022-09-01T07:55:56;25.00;99.90
26947;DHT22;14501;52.282;10.560;2022-09-01T07:58:25;28.40;96.20
26947;DHT22;14501;52.282;10.560;2022-09-01T08:00:52;31.50;90.70
26947;DHT22;14501;52.282;10.560;2022-09-01T08:03:22;35.80;69.60
26947;DHT22;14501;52.282;10.560;2022-09-01T08:05:49;35.70;70.00
26947;DHT22;14501;52.282;10.560;2022-09-01T08:08:19;37.50;65.30
26947;DHT22;14501;52.282;10.560;2022-09-01T08:10:45;37.70;63.20
26947;DHT22;14501;52.282;10.560;2022-09-01T08:13:11;39.00;59.40
26947;DHT22;14501;52.282;10.560;2022-09-01T08:15:41;39.20;57.10
26947;DHT22;14501;52.282;10.560;2022-09-01T08:18:07;39.50;57.00
26947;DHT22;14501;52.282;10.560;2022-09-01T08:20:34;39.70;55.40
26947;DHT22;14501;52.282;10.560;2022-09-01T08:23:05;39.60;55.10
26947;DHT22;14501;52.282;10.560;2022-09-01T08:25:33;40.00;55.50
26947;DHT22;14501;52.282;10.560;2022-09-01T08:28:00;40.40;52.60
26947;DHT22;14501;52.282;10.560;2022-09-01T08:30:27;40.70;53.00
26947;DHT22;14501;52.282;10.560;2022-09-01T08:32:52;40.70;52.30
26947;DHT22;14501;52.282;10.560;2022-09-01T08:35:18;41.30;51.60
26947;DHT22;14501;52.282;10.560;2022-09-01T08:37:45;41.80;51.10
26947;DHT22;14501;52.282;10.560;2022-09-01T08:40:13;41.30;51.50
26947;DHT22;14501;52.282;10.560;2022-09-01T08:43:06;41.70;50.40
26947;DHT22;14501;52.282;10.560;2022-09-01T08:45:44;41.60;49.20
26947;DHT22;14501;52.282;10.560;2022-09-01T08:48:30;41.80;49.90
26947;DHT22;14501;52.282;10.560;2022-09-01T08:56:31;41.80;49.00
26947;DHT22;14501;52.282;10.560;2022-09-01T08:58:57;40.90;49.30
26947;DHT22;14501;52.282;10.560;2022-09-01T09:01:35;40.70;49.70
26947;DHT22;14501;52.282;10.560;2022-09-01T09:09:36;41.40;48.00
26947;DHT22;14501;52.282;10.560;2022-09-01T09:12:28;41.50;48.20
26947;DHT22;14501;52.282;10.560;2022-09-01T09:17:37;41.00;48.00
26947;DHT22;14501;52.282;10.560;2022-09-01T09:20:05;41.50;48.50
26947;DHT22;14501;52.282;10.560;2022-09-01T09:22:32;41.20;47.30
26947;DHT22;14501;52.282;10.560;2022-09-01T09:25:13;41.10;47.70
26947;DHT22;14501;52.282;10.560;2022-09-01T09:27:41;40.90;47.00
26947;DHT22;14501;52.282;10.560;2022-09-01T09:33:01;41.10;46.20
26947;DHT22;14501;52.282;10.560;2022-09-01T09:35:42;40.90;46.60
26947;DHT22;14501;52.282;10.560;2022-09-01T09:43:29;40.70;47.50
26947;DHT22;14501;52.282;10.560;2022-09-01T09:46:19;40.60;46.40
26947;DHT22;14501;52.282;10.560;2022-09-01T09:48:45;40.80;47.10
26947;DHT22;14501;52.282;10.560;2022-09-01T09:51:21;40.40;47.20
26947;DHT22;14501;52.282;10.560;2022-09-01T09:53:47;40.00;48.00
26947;DHT22;14501;52.282;10.560;2022-09-01T09:56:22;40.70;48.40
26947;DHT22;14501;52.282;10.560;2022-09-01T09:58:51;41.00;48.00
26947;DHT22;14501;52.282;10.560;2022-09-01T10:03:57;40.70;46.50
26947;DHT22;14501;52.282;10.560;2022-09-01T10:06:35;41.10;46.60
26947;DHT22;14501;52.282;10.560;2022-09-01T10:09:08;40.20;46.80
26947;DHT22;14501;52.282;10.560;2022-09-01T10:11:42;40.20;47.60
26947;DHT22;14501;52.282;10.560;2022-09-01T10:14:40;39.60;47.90
26947;DHT22;14501;52.282;10.560;2022-09-01T10:17:16;39.40;48.10
26947;DHT22;14501;52.282;10.560;2022-09-01T10:19:52;39.40;48.50
26947;DHT22;14501;52.282;10.560;2022-09-01T10:22:19;38.60;48.20
26947;DHT22;14501;52.282;10.560;2022-09-01T10:24:46;38.10;50.80
26947;DHT22;14501;52.282;10.560;2022-09-01T10:30:29;35.30;52.90
26947;DHT22;14501;52.282;10.560;2022-09-01T10:35:11;33.10;55.30
26947;DHT22;14501;52.282;10.560;2022-09-01T10:37:39;32.20;56.50
26947;DHT22;14501;52.282;10.560;2022-09-01T10:42:56;30.50;58.30
26947;DHT22;14501;52.282;10.560;2022-09-01T10:45:32;30.30;59.30
26947;DHT22;14501;52.282;10.560;2022-09-01T10:50:57;29.50;62.80
26947;DHT22;14501;52.282;10.560;2022-09-01T10:53:42;29.70;61.00
26947;DHT22;14501;52.282;10.560;2022-09-01T10:56:42;29.80;63.50
26947;DHT22;14501;52.282;10.560;2022-09-01T10:59:28;29.60;61.50
26947;DHT22;14501;52.282;10.560;2022-09-01T11:12:16;28.60;63.60
26947;DHT22;14501;52.282;10.560;2022-09-01T11:14:53;28.50;62.50
26947;DHT22;14501;52.282;10.560;2022-09-01T11:17:28;28.70;63.80
26947;DHT22;14501;52.282;10.560;2022-09-01T11:39:02;28.30;62.50
26947;DHT22;14501;52.282;10.560;2022-09-01T11:47:35;28.30;62.30
26947;DHT22;14501;52.282;10.560;2022-09-01T11:50:22;28.30;62.70
26947;DHT22;14501;52.282;10.560;2022-09-01T11:53:02;28.30;63.10
26947;DHT22;14501;52.282;10.560;2022-09-01T11:58:00;28.30;63.60
26947;DHT22;14501;52.282;10.560;2022-09-01T12:00:30;28.00;64.30
26947;DHT22;14501;52.282;10.560;2022-09-01T12:02:56;28.10;64.70
26947;DHT22;14501;52.282;10.560;2022-09-01T12:05:36;28.10;62.70
26947;DHT22;14501;52.282;10.560;2022-09-01T12:08:17;28.30;63.60
26947;DHT22;14501;52.282;10.560;2022-09-01T12:10:43;28.40;63.60
26947;DHT22;14501;52.282;10.560;2022-09-01T12:13:23;28.40;64.20
26947;DHT22;14501;52.282;10.560;2022-09-01T12:15:54;28.40;63.40
26947;DHT22;14501;52.282;10.560;2022-09-01T12:18:24;28.40;62.90
26947;DHT22;14501;52.282;10.560;2022-09-01T12:20:53;28.40;63.70
26947;DHT22;14501;52.282;10.560;2022-09-01T12:25:57;28.60;61.10
26947;DHT22;14501;52.282;10.560;2022-09-01T12:28:28;28.40;60.30
26947;DHT22;14501;52.282;10.560;2022-09-01T12:30:56;27.90;60.80
26947;DHT22;14501;52.282;10.560;2022-09-01T12:33:23;27.50;61.70
26947;DHT22;14501;52.282;10.560;2022-09-01T12:35:50;27.30;61.70
26947;DHT22;14501;52.282;10.560;2022-09-01T12:40:47;27.20;61.60
26947;DHT22;14501;52.282;10.560;2022-09-01T12:43:37;27.30;63.50
26947;DHT22;14501;52.282;10.560;2022-09-01T12:46:05;27.60;61.70
26947;DHT22;14501;52.282;10.560;2022-09-01T12:48:36;27.70;61.10
26947;DHT22;14501;52.282;10.560;2022-09-01T12:51:19;27.40;62.00
26947;DHT22;14501;52.282;10.560;2022-09-01T12:53:54;27.50;61.50
26947;DHT22;14501;52.282;10.560;2022-09-01T12:56:22;27.60;63.10
26947;DHT22;14501;52.282;10.560;2022-09-01T12:59:04;27.90;62.20
26947;DHT22;14501;52.282;10.560;2022-09-01T13:01:32;27.50;61.80
26947;DHT22;14501;52.282;10.560;2022-09-01T13:06:32;26.70;61.80
26947;DHT22;14501;52.282;10.560;2022-09-01T13:08:57;25.90;62.90
26947;DHT22;14501;52.282;10.560;2022-09-01T13:11:23;25.60;64.10
26947;DHT22;14501;52.282;10.560;2022-09-01T13:13:48;25.20;64.10
26947;DHT22;14501;52.282;10.560;2022-09-01T13:16:14;24.80;64.80
26947;DHT22;14501;52.282;10.560;2022-09-01T13:18:41;24.30;64.90
26947;DHT22;14501;52.282;10.560;2022-09-01T13:21:07;24.20;68.30
26947;DHT22;14501;52.282;10.560;2022-09-01T13:23:33;24.00;66.40
26947;DHT22;14501;52.282;10.560;2022-09-01T13:25:59;23.80;67.60
26947;DHT22;14501;52.282;10.560;2022-09-01T13:28:25;23.70;66.30
26947;DHT22;14501;52.282;10.560;2022-09-01T13:30:55;23.80;66.70
26947;DHT22;14501;52.282;10.560;2022-09-01T13:33:21;24.10;66.20
26947;DHT22;14501;52.282;10.560;2022-09-01T13:35:48;24.40;68.80
26947;DHT22;14501;52.282;10.560;2022-09-01T13:38:14;24.70;63.40
26947;DHT22;14501;52.282;10.560;2022-09-01T13:40:41;24.70;64.20
26947;DHT22;14501;52.282;10.560;2022-09-01T13:43:08;24.70;64.20
26947;DHT22;14501;52.282;10.560;2022-09-01T13:45:33;24.70;63.10
26947;DHT22;14501;52.282;10.560;2022-09-01T13:47:59;24.90;62.20
26947;DHT22;14501;52.282;10.560;2022-09-01T13:50:26;25.10;63.40
26947;DHT22;14501;52.282;10.560;2022-09-01T13:52:54;25.20;63.80
26947;DHT22;14501;52.282;10.560;2022-09-01T13:55:26;25.30;62.90
26947;DHT22;14501;52.282;10.560;2022-09-01T13:57:53;25.70;63.00
26947;DHT22;14501;52.282;10.560;2022-09-01T14:00:21;25.80;62.40
26947;DHT22;14501;52.282;10.560;2022-09-01T14:02:52;25.80;62.40
26947;DHT22;14501;52.282;10.560;2022-09-01T14:05:24;25.60;62.20
26947;DHT22;14501;52.282;10.560;2022-09-01T14:07:51;25.30;62.30
26947;DHT22;14501;52.282;10.560;2022-09-01T14:10:18;25.20;63.20
26947;DHT22;14501;52.282;10.560;2022-09-01T14:12:45;25.10;63.70
26947;DHT22;14501;52.282;10.560;2022-09-01T14:15:12;24.70;63.80
26947;DHT22;14501;52.282;10.560;2022-09-01T14:17:39;24.20;64.30
26947;DHT22;14501;52.282;10.560;2022-09-01T14:20:07;24.10;65.10
26947;DHT22;14501;52.282;10.560;2022-09-01T14:22:34;23.80;65.80
26947;DHT22;14501;52.282;10.560;2022-09-01T14:25:00;23.60;66.50
26947;DHT22;14501;52.282;10.560;2022-09-01T14:27:26;23.70;65.90
26947;DHT22;14501;52.282;10.560;2022-09-01T14:29:52;23.70;66.60
26947;DHT22;14501;52.282;10.560;2022-09-01T14:32:18;23.80;66.60
26947;DHT22;14501;52.282;10.560;2022-09-01T14:34:49;23.70;66.50
26947;DHT22;14501;52.282;10.560;2022-09-01T14:37:15;23.40;66.50
26947;DHT22;14501;52.282;10.560;2022-09-01T14:39:40;23.30;67.50
26947;DHT22;14501;52.282;10.560;2022-09-01T14:42:06;23.50;67.60
26947;DHT22;14501;52.282;10.560;2022-09-01T14:44:36;23.50;67.50
26947;DHT22;14501;52.282;10.560;2022-09-01T14:47:03;23.90;68.00
26947;DHT22;14501;52.282;10.560;2022-09-01T14:49:31;23.50;67.20
26947;DHT22;14501;52.282;10.560;2022-09-01T14:52:00;23.50;67.90
26947;DHT22;14501;52.282;10.560;2022-09-01T14:54:29;23.70;66.60
26947;DHT22;14501;52.282;10.560;2022-09-01T14:56:54;24.20;66.60
26947;DHT22;14501;52.282;10.560;2022-09-01T14:59:20;24.20;66.60
26947;DHT22;14501;52.282;10.560;2022-09-01T15:01:47;24.50;66.00
26947;DHT22;14501;52.282;10.560;2022-09-01T15:04:12;24.70;65.70
26947;DHT22;14501;52.282;10.560;2022-09-01T15:06:38;24.90;66.10
26947;DHT22;14501;52.282;10.560;2022-09-01T15:09:04;25.00;64.80
26947;DHT22;14501;52.282;10.560;2022-09-01T15:11:30;25.20;64.90
26947;DHT22;14501;52.282;10.560;2022-09-01T15:13:55;25.20;64.50
26947;DHT22;14501;52.282;10.560;2022-09-01T15:16:24;25.20;64.40
26947;DHT22;14501;52.282;10.560;2022-09-01T15:18:50;25.00;65.80
26947;DHT22;14501;52.282;10.560;2022-09-01T15:21:27;24.70;67.70
26947;DHT22;14501;52.282;10.560;2022-09-01T15:23:55;24.40;69.10
26947;DHT22;14501;52.282;10.560;2022-09-01T15:26:20;24.20;69.30
26947;DHT22;14501;52.282;10.560;2022-09-01T15:28:47;23.90;69.80
26947;DHT22;14501;52.282;10.560;2022-09-01T15:31:14;23.70;70.40
26947;DHT22;14501;52.282;10.560;2022-09-01T15:33:41;23.50;71.10
26947;DHT22;14501;52.282;10.560;2022-09-01T15:36:07;23.40;73.10
26947;DHT22;14501;52.282;10.560;2022-09-01T15:38:34;23.20;72.20
26947;DHT22;14501;52.282;10.560;2022-09-01T15:40:59;23.00;72.40
26947;DHT22;14501;52.282;10.560;2022-09-01T15:43:29;22.80;72.90
26947;DHT22;14501;52.282;10.560;2022-09-01T15:45:56;22.60;74.00
26947;DHT22;14501;52.282;10.560;2022-09-01T15:48:23;22.40;74.40
26947;DHT22;14501;52.282;10.560;2022-09-01T15:50:49;22.20;75.20
26947;DHT22;14501;52.282;10.560;2022-09-01T15:53:15;22.10;75.80
26947;DHT22;14501;52.282;10.560;2022-09-01T15:55:45;21.90;76.60
26947;DHT22;14501;52.282;10.560;2022-09-01T15:58:14;21.70;76.70
26947;DHT22;14501;52.282;10.560;2022-09-01T16:00:41;21.60;77.40
26947;DHT22;14501;52.282;10.560;2022-09-01T16:03:07;21.60;78.00
26947;DHT22;14501;52.282;10.560;2022-09-01T16:05:36;21.60;78.30
26947;DHT22;14501;52.282;10.560;2022-09-01T16:08:03;21.70;76.90
26947;DHT22;14501;52.282;10.560;2022-09-01T16:10:30;21.70;76.90
26947;DHT22;14501;52.282;10.560;2022-09-01T16:12:55;21.70;77.00
26947;DHT22;14501;52.282;10.560;2022-09-01T16:15:23;21.70;77.20
26947;DHT22;14501;52.282;10.560;2022-09-01T16:18:14;21.70;76.40
26947;DHT22;14501;52.282;10.560;2022-09-01T16:21:13;21.70;76.70
26947;DHT22;14501;52.282;10.560;2022-09-01T16:23:48;21.70;76.90
26947;DHT22;14501;52.282;10.560;2022-09-01T16:26:15;21.70;77.10
26947;DHT22;14501;52.282;10.560;2022-09-01T16:28:44;21.60;77.60
26947;DHT22;14501;52.282;10.560;2022-09-01T16:31:14;21.60;77.80
26947;DHT22;14501;52.282;10.560;2022-09-01T16:33:47;21.60;78.00
26947;DHT22;14501;52.282;10.560;2022-09-01T16:42:00;21.50;78.50
26947;DHT22;14501;52.282;10.560;2022-09-01T16:58:20;21.20;80.10
26947;DHT22;14501;52.282;10.560;2022-09-01T17:04:18;21.10;80.30
26947;DHT22;14501;52.282;10.560;2022-09-01T17:07:19;21.00;80.30
26947;DHT22;14501;52.282;10.560;2022-09-01T17:12:53;20.90;81.20
26947;DHT22;14501;52.282;10.560;2022-09-01T17:15:36;20.90;81.00
26947;DHT22;14501;52.282;10.560;2022-09-01T17:20:43;20.60;82.10